createdAt,value
2023-12-20T00:01:18.253Z,6.50
2023-12-20T00:10:50.096Z,6.50
2023-12-20T00:13:27.946Z,6.50
2023-12-20T00:16:38.046Z,6.40
2023-12-20T00:19:35.077Z,6.40
2023-12-20T00:22:27.970Z,6.40
2023-12-20T00:25:34.471Z,6.40
2023-12-20T00:28:14.592Z,6.50
2023-12-20T00:30:46.877Z,6.50
2023-12-20T00:33:36.632Z,6.50
2023-12-20T00:36:34.691Z,6.50
2023-12-20T00:39:13.026Z,6.40
2023-12-20T00:41:42.675Z,6.40
2023-12-20T00:44:14.150Z,6.30
2023-12-20T00:46:46.144Z,6.30
2023-12-20T00:49:20.892Z,6.30
2023-12-20T00:51:54.336Z,6.20
2023-12-20T00:54:33.215Z,6.20
2023-12-20T00:57:06.037Z,6.20
2023-12-20T00:59:40.659Z,6.20
2023-12-20T01:02:11.626Z,6.10
2023-12-20T01:04:44.225Z,6.10
2023-12-20T01:07:14.003Z,6.10
2023-12-20T01:09:41.551Z,6.10
2023-12-20T01:12:14.329Z,6.10
2023-12-20T01:14:47.800Z,6.10
2023-12-20T01:17:15.350Z,6.10
2023-12-20T01:19:47.365Z,6.00
2023-12-20T01:22:17.446Z,6.00
2023-12-20T01:24:47.049Z,6.00
2023-12-20T01:27:14.314Z,6.00
2023-12-20T01:29:43.908Z,6.00
2023-12-20T01:32:11.207Z,6.10
2023-12-20T01:34:38.602Z,6.00
2023-12-20T01:37:08.959Z,6.00
2023-12-20T01:39:36.436Z,6.00
2023-12-20T01:42:09.286Z,6.00
2023-12-20T01:44:36.657Z,5.90
2023-12-20T01:47:04.114Z,5.90
2023-12-20T01:49:33.810Z,5.90
2023-12-20T01:52:03.234Z,5.90
2023-12-20T01:54:30.780Z,5.80
2023-12-20T01:57:07.689Z,5.90
2023-12-20T01:59:35.970Z,5.90
2023-12-20T02:02:05.110Z,5.80
2023-12-20T02:04:35.606Z,5.90
2023-12-20T02:07:04.764Z,5.90
2023-12-20T02:09:37.237Z,5.90
2023-12-20T02:12:07.852Z,5.90
2023-12-20T02:14:34.972Z,5.90
2023-12-20T02:17:03.560Z,5.90
2023-12-20T02:19:30.735Z,5.90
2023-12-20T02:22:11.565Z,5.90
2023-12-20T02:24:41.599Z,5.90
2023-12-20T02:27:09.151Z,5.90
2023-12-20T02:29:36.579Z,5.90
2023-12-20T02:32:04.239Z,5.90
2023-12-20T02:34:31.457Z,5.90
2023-12-20T02:36:58.966Z,6.00
2023-12-20T02:39:26.046Z,6.00
2023-12-20T02:41:53.279Z,6.00
2023-12-20T02:44:20.490Z,6.10
2023-12-20T02:46:48.090Z,6.10
2023-12-20T02:49:15.411Z,6.10
2023-12-20T02:51:42.668Z,6.20
2023-12-20T02:54:09.808Z,6.20
2023-12-20T02:56:37.120Z,6.20
2023-12-20T02:59:08.833Z,6.20
2023-12-20T03:01:36.333Z,6.30
2023-12-20T03:04:03.746Z,6.30
2023-12-20T03:06:30.977Z,6.30
2023-12-20T03:08:59.325Z,6.40
2023-12-20T03:11:30.032Z,6.30
2023-12-20T03:14:00.018Z,6.30
2023-12-20T03:16:32.340Z,6.30
2023-12-20T03:19:00.456Z,6.30
2023-12-20T03:21:29.270Z,6.30
2023-12-20T03:23:56.495Z,6.20
2023-12-20T03:26:24.291Z,6.20
2023-12-20T03:28:53.872Z,6.20
2023-12-20T03:31:22.366Z,6.20
2023-12-20T03:33:49.909Z,6.10
2023-12-20T03:36:17.120Z,6.10
2023-12-20T03:38:48.067Z,6.10
2023-12-20T03:41:15.559Z,6.10
2023-12-20T03:43:42.864Z,6.10
2023-12-20T03:46:12.971Z,6.00
2023-12-20T03:48:40.325Z,6.10
2023-12-20T03:51:09.871Z,6.10
2023-12-20T03:53:40.625Z,6.10
2023-12-20T03:56:08.170Z,6.10
2023-12-20T03:58:35.442Z,6.00
2023-12-20T04:01:04.732Z,6.10
2023-12-20T04:03:32.023Z,6.00
2023-12-20T04:05:59.374Z,6.00
2023-12-20T04:08:27.182Z,6.00
2023-12-20T04:10:54.360Z,6.10
2023-12-20T04:13:21.472Z,6.10
2023-12-20T04:15:52.971Z,6.10
2023-12-20T04:18:20.353Z,6.10
2023-12-20T04:20:53.366Z,6.10
2023-12-20T04:23:20.656Z,6.20
2023-12-20T04:25:50.425Z,6.20
2023-12-20T04:28:20.639Z,6.20
2023-12-20T04:30:50.346Z,6.20
2023-12-20T04:33:20.094Z,6.20
2023-12-20T04:35:48.538Z,6.20
2023-12-20T04:38:15.662Z,6.20
2023-12-20T04:40:42.857Z,6.20
2023-12-20T04:43:10.276Z,6.30
2023-12-20T04:45:37.955Z,6.30
2023-12-20T04:48:05.563Z,6.30
2023-12-20T04:50:32.700Z,6.30
2023-12-20T04:53:00.189Z,6.30
2023-12-20T04:55:27.389Z,6.30
2023-12-20T04:57:57.806Z,6.40
2023-12-20T05:00:25.081Z,6.40
2023-12-20T05:02:52.264Z,6.40
2023-12-20T05:05:19.498Z,6.50
2023-12-20T05:07:48.767Z,6.50
2023-12-20T05:10:17.614Z,6.50
2023-12-20T05:12:44.876Z,6.60
2023-12-20T05:15:12.103Z,6.60
2023-12-20T05:17:39.351Z,6.60
2023-12-20T05:20:07.220Z,6.70
2023-12-20T05:22:34.481Z,6.70
2023-12-20T05:25:02.914Z,6.70
2023-12-20T05:27:30.093Z,6.70
2023-12-20T05:29:59.527Z,6.80
2023-12-20T05:32:26.676Z,6.80
2023-12-20T05:34:55.067Z,6.90
2023-12-20T05:37:22.334Z,6.90
2023-12-20T05:39:49.694Z,6.90
2023-12-20T05:42:16.906Z,6.90
2023-12-20T05:44:44.081Z,6.90
2023-12-20T05:47:12.644Z,7.00
2023-12-20T05:49:40.150Z,7.00
2023-12-20T05:52:08.695Z,7.00
2023-12-20T05:54:35.830Z,7.00
2023-12-20T05:57:03.290Z,7.00
2023-12-20T05:59:32.990Z,7.10
2023-12-20T06:02:05.566Z,7.10
2023-12-20T06:04:34.728Z,7.10
2023-12-20T06:07:02.099Z,7.10
2023-12-20T06:09:32.428Z,7.10
2023-12-20T06:11:59.834Z,7.10
2023-12-20T06:14:26.962Z,7.10
2023-12-20T06:16:56.537Z,7.20
2023-12-20T06:19:23.946Z,7.10
2023-12-20T06:21:51.390Z,7.20
2023-12-20T06:24:18.602Z,7.20
2023-12-20T06:26:45.953Z,7.20
2023-12-20T06:29:15.681Z,7.20
2023-12-20T06:31:42.994Z,7.20
2023-12-20T06:34:10.335Z,7.20
2023-12-20T06:36:37.469Z,7.20
2023-12-20T06:39:06.077Z,7.20
2023-12-20T06:41:33.271Z,7.20
2023-12-20T06:44:00.554Z,7.20
2023-12-20T06:46:27.635Z,7.20
2023-12-20T06:48:54.893Z,7.20
2023-12-20T06:51:22.015Z,7.30
2023-12-20T06:53:49.243Z,7.30
2023-12-20T06:56:19.493Z,7.30
2023-12-20T06:58:50.736Z,7.30
2023-12-20T07:01:20.899Z,7.30
2023-12-20T07:03:51.502Z,7.30
2023-12-20T07:06:18.737Z,7.30
2023-12-20T07:08:45.972Z,7.30
2023-12-20T07:11:14.470Z,7.30
2023-12-20T07:13:42.899Z,7.30
2023-12-20T07:16:10.326Z,7.30
2023-12-20T07:18:39.689Z,7.30
2023-12-20T07:21:09.246Z,7.30
2023-12-20T07:23:36.454Z,7.30
2023-12-20T07:26:10.668Z,7.30
2023-12-20T07:28:38.112Z,7.30
2023-12-20T07:31:05.707Z,7.30
2023-12-20T07:33:39.150Z,7.30
2023-12-20T07:36:10.117Z,7.30
2023-12-20T07:38:39.964Z,7.40
2023-12-20T07:41:07.168Z,7.30
2023-12-20T07:43:36.754Z,7.40
2023-12-20T07:46:12.986Z,7.40
2023-12-20T07:48:41.223Z,7.40
2023-12-20T07:51:11.075Z,7.40
2023-12-20T07:53:38.781Z,7.40
2023-12-20T07:56:15.759Z,7.40
2023-12-20T07:58:52.216Z,7.50
2023-12-20T08:01:25.936Z,7.50
2023-12-20T08:03:53.409Z,7.50
2023-12-20T08:06:23.006Z,7.50
2023-12-20T08:08:58.628Z,7.50
2023-12-20T08:11:34.932Z,7.50
2023-12-20T08:14:02.199Z,7.50
2023-12-20T08:16:29.420Z,7.50
2023-12-20T08:18:56.713Z,7.50
2023-12-20T08:21:24.013Z,7.50
2023-12-20T08:23:54.076Z,7.60
2023-12-20T08:26:22.308Z,7.60
2023-12-20T08:28:49.376Z,7.60
2023-12-20T08:31:18.102Z,7.60
2023-12-20T08:33:45.787Z,7.60
2023-12-20T08:36:13.431Z,7.60
2023-12-20T08:38:40.637Z,7.60
2023-12-20T08:41:08.573Z,7.60
2023-12-20T08:43:36.824Z,7.60
2023-12-20T08:46:04.143Z,7.60
2023-12-20T08:48:31.477Z,7.70
2023-12-20T08:50:59.884Z,7.70
2023-12-20T08:53:28.378Z,7.70
2023-12-20T08:55:55.454Z,7.70
2023-12-20T08:58:23.854Z,7.70
2023-12-20T09:00:53.547Z,7.60
2023-12-20T09:03:20.701Z,7.60
2023-12-20T09:05:50.451Z,7.50
2023-12-20T09:08:20.108Z,7.50
2023-12-20T09:10:47.399Z,7.40
2023-12-20T09:13:15.012Z,7.40
2023-12-20T09:15:42.391Z,7.40
2023-12-20T09:18:15.815Z,7.40
2023-12-20T09:20:44.476Z,7.30
2023-12-20T09:23:12.279Z,7.30
2023-12-20T09:25:39.671Z,7.30
2023-12-20T09:28:09.973Z,7.30
2023-12-20T09:30:40.907Z,7.30
2023-12-20T09:33:08.762Z,7.30
2023-12-20T09:35:36.323Z,7.30
2023-12-20T09:38:03.507Z,7.30
2023-12-20T09:40:32.694Z,7.30
2023-12-20T09:43:10.266Z,7.20
2023-12-20T09:45:37.451Z,7.30
2023-12-20T09:48:05.793Z,7.30
2023-12-20T09:50:34.267Z,7.20
2023-12-20T09:53:06.075Z,7.20
2023-12-20T09:55:34.344Z,7.20
2023-12-20T09:58:01.848Z,7.30
2023-12-20T10:00:29.008Z,7.30
2023-12-20T10:03:00.029Z,7.30
2023-12-20T10:05:34.786Z,7.30
2023-12-20T10:08:03.574Z,7.30
2023-12-20T10:10:38.568Z,7.30
2023-12-20T10:13:14.650Z,7.30
2023-12-20T10:15:42.798Z,7.30
2023-12-20T10:18:11.767Z,7.30
2023-12-20T10:20:38.847Z,7.30
2023-12-20T10:23:05.848Z,7.40
2023-12-20T10:25:33.597Z,7.40
2023-12-20T10:28:15.565Z,7.40
2023-12-20T10:30:43.725Z,7.50
2023-12-20T10:33:12.172Z,7.50
2023-12-20T10:35:43.961Z,7.50
2023-12-20T10:38:15.908Z,7.50
2023-12-20T10:40:44.324Z,7.60
2023-12-20T10:43:12.333Z,7.60
2023-12-20T10:45:39.955Z,7.60
2023-12-20T10:48:08.417Z,7.60
2023-12-20T10:50:40.022Z,7.60
2023-12-20T10:53:08.537Z,7.60
2023-12-20T10:55:35.834Z,7.60
2023-12-20T10:58:07.887Z,7.60
2023-12-20T11:00:40.853Z,7.60
2023-12-20T11:03:10.672Z,7.60
2023-12-20T11:05:49.778Z,7.70
2023-12-20T11:08:28.994Z,7.60
2023-12-20T11:11:07.549Z,7.70
2023-12-20T11:13:41.560Z,7.70
2023-12-20T11:16:09.362Z,7.70
2023-12-20T11:18:37.082Z,7.60
2023-12-20T11:21:06.226Z,7.60
2023-12-20T11:23:36.991Z,7.60
2023-12-20T11:26:04.599Z,7.60
2023-12-20T11:28:31.881Z,7.60
2023-12-20T11:31:03.725Z,7.60
2023-12-20T11:33:38.656Z,7.70
2023-12-20T11:36:14.858Z,7.70
2023-12-20T11:39:04.967Z,7.70
2023-12-20T11:41:34.130Z,7.80
2023-12-20T11:44:02.197Z,7.80
2023-12-20T11:46:29.284Z,7.80
2023-12-20T11:48:56.495Z,7.80
2023-12-20T11:51:23.994Z,7.90
2023-12-20T11:53:54.636Z,7.90
2023-12-20T11:56:21.660Z,7.90
2023-12-20T11:58:51.261Z,8.00
2023-12-20T12:01:20.892Z,8.00
2023-12-20T12:04:07.064Z,8.00
2023-12-20T12:06:34.788Z,8.00
2023-12-20T12:09:01.965Z,8.00
2023-12-20T12:11:29.079Z,8.10
2023-12-20T12:13:56.136Z,8.10
2023-12-20T12:16:23.320Z,8.10
2023-12-20T12:18:59.950Z,8.20
2023-12-20T12:21:32.977Z,8.20
2023-12-20T12:24:11.187Z,8.20
2023-12-20T12:26:39.035Z,8.30
2023-12-20T12:29:08.933Z,8.30
2023-12-20T12:31:36.882Z,8.40
2023-12-20T12:34:04.550Z,8.40
2023-12-20T12:36:31.777Z,8.50
2023-12-20T12:39:08.978Z,8.50
2023-12-20T12:41:35.977Z,8.60
2023-12-20T12:44:11.467Z,8.60
2023-12-20T12:46:41.897Z,8.70
2023-12-20T12:49:09.068Z,8.70
2023-12-20T12:51:36.136Z,8.70
2023-12-20T12:54:03.326Z,8.60
2023-12-20T12:56:30.644Z,8.60
2023-12-20T12:58:57.745Z,8.50
2023-12-20T13:01:24.960Z,8.40
2023-12-20T13:03:52.142Z,8.40
2023-12-20T13:06:19.351Z,8.40
2023-12-20T13:08:46.527Z,8.40
2023-12-20T13:11:13.645Z,8.40
2023-12-20T13:13:42.724Z,8.40
2023-12-20T13:16:09.853Z,8.40
2023-12-20T13:18:37.040Z,8.40
2023-12-20T13:21:04.315Z,8.50
2023-12-20T13:23:31.341Z,8.50
2023-12-20T13:25:58.423Z,8.50
2023-12-20T13:28:25.607Z,8.60
2023-12-20T13:30:52.841Z,8.60
2023-12-20T13:33:19.891Z,8.50
2023-12-20T13:35:46.899Z,8.60
2023-12-20T13:38:14.782Z,8.60
2023-12-20T13:40:41.934Z,8.60
2023-12-20T13:43:09.362Z,8.60
2023-12-20T13:45:36.344Z,8.60
2023-12-20T13:48:03.995Z,8.60
2023-12-20T13:50:30.996Z,8.60
2023-12-20T13:52:57.987Z,8.60
2023-12-20T13:55:26.530Z,8.60
2023-12-20T13:57:56.067Z,8.60
2023-12-20T14:00:24.438Z,8.60
2023-12-20T14:02:56.657Z,8.70
2023-12-20T14:05:28.099Z,8.60
2023-12-20T14:07:58.818Z,8.70
2023-12-20T14:10:29.142Z,8.70
2023-12-20T14:12:57.006Z,8.70
2023-12-20T14:15:26.722Z,8.70
2023-12-20T14:17:54.173Z,8.70
2023-12-20T14:20:21.424Z,8.70
2023-12-20T14:22:48.481Z,8.70
2023-12-20T14:25:16.122Z,8.80
2023-12-20T14:27:47.051Z,8.70
2023-12-20T14:30:15.837Z,8.70
2023-12-20T14:32:45.700Z,8.70
2023-12-20T14:35:13.173Z,8.80
2023-12-20T14:37:41.777Z,8.70
2023-12-20T14:40:16.925Z,8.80
2023-12-20T14:42:45.145Z,8.80
2023-12-20T14:45:12.713Z,8.80
2023-12-20T14:47:39.790Z,8.80
2023-12-20T14:50:07.802Z,8.80
2023-12-20T14:52:35.507Z,8.80
2023-12-20T14:55:05.846Z,8.90
2023-12-20T14:57:33.611Z,8.80
2023-12-20T15:00:00.672Z,8.90
2023-12-20T15:02:27.674Z,8.80
2023-12-20T15:04:54.760Z,8.80
2023-12-20T15:07:21.794Z,8.80
2023-12-20T15:09:49.070Z,8.80
2023-12-20T15:12:19.530Z,8.80
2023-12-20T15:14:49.057Z,8.80
2023-12-20T15:17:16.732Z,8.80
2023-12-20T15:19:44.445Z,8.80
2023-12-20T15:22:11.512Z,8.80
2023-12-20T15:24:43.506Z,8.80
2023-12-20T15:27:11.215Z,8.80
2023-12-20T15:29:38.315Z,8.80
2023-12-20T15:32:05.760Z,8.80
2023-12-20T15:34:33.056Z,8.80
2023-12-20T15:37:00.201Z,8.70
2023-12-20T15:39:27.344Z,8.70
2023-12-20T15:41:54.575Z,8.70
2023-12-20T15:44:21.574Z,8.70
2023-12-20T15:46:48.526Z,8.60
2023-12-20T15:49:18.281Z,8.60
2023-12-20T15:51:45.668Z,8.60
2023-12-20T15:54:12.813Z,8.60
2023-12-20T15:56:42.348Z,8.50
2023-12-20T15:59:11.009Z,8.50
2023-12-20T16:01:38.307Z,8.40
2023-12-20T16:04:06.254Z,8.40
2023-12-20T16:06:33.438Z,8.40
2023-12-20T16:09:01.856Z,8.40
2023-12-20T16:11:29.247Z,8.30
2023-12-20T16:13:56.227Z,8.30
2023-12-20T16:16:23.214Z,8.30
2023-12-20T16:18:50.516Z,8.20
2023-12-20T16:21:20.241Z,8.20
2023-12-20T16:23:47.335Z,8.20
2023-12-20T16:26:14.783Z,8.20
2023-12-20T16:28:41.882Z,8.20
2023-12-20T16:31:09.052Z,8.20
2023-12-20T16:33:36.323Z,8.20
2023-12-20T16:36:03.453Z,8.20
2023-12-20T16:38:30.695Z,8.10
2023-12-20T16:40:57.796Z,8.10
2023-12-20T16:43:24.851Z,8.10
2023-12-20T16:45:51.965Z,8.10
2023-12-20T16:48:21.087Z,8.10
2023-12-20T16:50:50.611Z,8.10
2023-12-20T16:53:17.790Z,8.10
2023-12-20T16:55:45.692Z,8.10
2023-12-20T16:58:13.409Z,8.10
2023-12-20T17:00:43.770Z,8.10
2023-12-20T17:03:10.896Z,8.10
2023-12-20T17:05:38.108Z,8.10
2023-12-20T17:08:05.471Z,8.20
2023-12-20T17:10:32.690Z,8.20
2023-12-20T17:12:59.832Z,8.20
2023-12-20T17:15:26.963Z,8.20
2023-12-20T17:22:27.152Z,8.20
2023-12-20T17:24:54.212Z,8.20
2023-12-20T17:27:21.315Z,8.20
2023-12-20T17:29:48.378Z,8.30
2023-12-20T17:32:15.454Z,8.30
2023-12-20T17:34:42.995Z,8.20
2023-12-20T17:37:10.363Z,8.20
2023-12-20T17:39:37.422Z,8.20
2023-12-20T17:42:04.936Z,8.20
2023-12-20T17:44:31.987Z,8.20
2023-12-20T17:46:59.193Z,8.20
2023-12-20T17:49:29.516Z,8.20
2023-12-20T17:51:57.322Z,8.20
2023-12-20T17:54:26.619Z,8.20
2023-12-20T17:56:54.378Z,8.20
2023-12-20T17:59:21.386Z,8.20
2023-12-20T18:01:48.594Z,8.20
2023-12-20T18:04:20.425Z,8.20
2023-12-20T18:06:50.417Z,8.20
2023-12-20T18:09:49.550Z,8.30
2023-12-20T18:12:20.393Z,8.20
2023-12-20T18:14:53.505Z,8.30
2023-12-20T18:17:21.206Z,8.30
2023-12-20T18:19:55.104Z,8.30
2023-12-20T18:22:24.936Z,8.30
2023-12-20T18:24:52.028Z,8.30
2023-12-20T18:27:19.237Z,8.30
2023-12-20T18:29:48.944Z,8.30
2023-12-20T18:32:16.883Z,8.30
2023-12-20T18:34:44.077Z,8.30
2023-12-20T18:37:12.237Z,8.30
2023-12-20T18:39:39.862Z,8.30
2023-12-20T18:42:08.560Z,8.40
2023-12-20T18:44:35.984Z,8.40
2023-12-20T18:47:03.978Z,8.40
2023-12-20T18:49:31.038Z,8.40
2023-12-20T18:51:58.295Z,8.40
2023-12-20T18:54:25.618Z,8.40
2023-12-20T18:56:53.776Z,8.40
2023-12-20T18:59:22.517Z,8.40
2023-12-20T19:01:49.967Z,8.40
2023-12-20T19:04:18.284Z,8.40
2023-12-20T19:06:45.437Z,8.40
2023-12-20T19:09:18.212Z,8.40
2023-12-20T19:11:45.329Z,8.40
2023-12-20T19:14:15.021Z,8.40
2023-12-20T19:16:42.002Z,8.40
2023-12-20T19:19:09.886Z,8.40
2023-12-20T19:21:37.470Z,8.40
2023-12-20T19:24:05.086Z,8.40
2023-12-20T19:26:32.426Z,8.40
2023-12-20T19:28:59.748Z,8.40
2023-12-20T19:31:26.988Z,8.50
2023-12-20T19:33:58.323Z,8.40
2023-12-20T19:36:25.625Z,8.50
2023-12-20T19:38:52.925Z,8.50
2023-12-20T19:41:20.199Z,8.50
2023-12-20T19:43:49.466Z,8.50
2023-12-20T19:46:16.934Z,8.50
2023-12-20T19:48:44.517Z,8.50
2023-12-20T19:51:12.221Z,8.50
2023-12-20T19:53:39.363Z,8.50
2023-12-20T19:56:08.017Z,8.50
2023-12-20T19:58:35.259Z,8.50
2023-12-20T20:01:05.389Z,8.50
2023-12-20T20:03:32.674Z,8.50
2023-12-20T20:06:00.067Z,8.50
2023-12-20T20:08:27.327Z,8.50
2023-12-20T20:10:54.533Z,8.60
2023-12-20T20:13:21.859Z,8.60
2023-12-20T20:15:49.339Z,8.50
2023-12-20T20:18:19.103Z,8.50
2023-12-20T20:20:48.776Z,8.60
2023-12-20T20:23:19.237Z,8.60
2023-12-20T20:25:47.042Z,8.60
2023-12-20T20:28:14.201Z,8.50
2023-12-20T20:30:41.481Z,8.60
2023-12-20T20:33:09.109Z,8.60
2023-12-20T20:35:36.424Z,8.60
2023-12-20T20:38:04.761Z,8.60
2023-12-20T20:40:32.003Z,8.60
2023-12-20T20:42:59.348Z,8.60
2023-12-20T20:45:27.614Z,8.60
2023-12-20T20:48:03.421Z,8.60
2023-12-20T20:50:39.015Z,8.60
2023-12-20T20:53:06.293Z,8.60
2023-12-20T20:55:33.512Z,8.60
2023-12-20T20:58:00.693Z,8.70
2023-12-20T21:00:27.830Z,8.70
2023-12-20T21:02:55.112Z,8.60
2023-12-20T21:05:22.135Z,8.70
2023-12-20T21:07:51.954Z,8.60
2023-12-20T21:10:19.276Z,8.70
2023-12-20T21:12:48.797Z,8.70
2023-12-20T21:15:17.693Z,8.70
2023-12-20T21:17:45.727Z,8.70
2023-12-20T21:20:15.158Z,8.70
2023-12-20T21:22:42.327Z,8.70
2023-12-20T21:25:12.442Z,8.70
2023-12-20T21:27:42.565Z,8.70
2023-12-20T21:30:13.378Z,8.70
2023-12-20T21:32:43.169Z,8.70
2023-12-20T21:35:10.318Z,8.70
2023-12-20T21:37:38.502Z,8.70
2023-12-20T21:40:06.627Z,8.80
2023-12-20T21:42:33.816Z,8.70
2023-12-20T21:45:01.038Z,8.80
2023-12-20T21:47:28.434Z,8.80
2023-12-20T21:49:56.146Z,8.80
2023-12-20T21:52:23.485Z,8.80
2023-12-20T21:54:50.829Z,8.80
2023-12-20T21:57:21.061Z,8.80
2023-12-20T21:59:48.850Z,8.80
2023-12-20T22:02:16.131Z,8.80
2023-12-20T22:04:43.849Z,8.80
2023-12-20T22:07:11.161Z,8.80
2023-12-20T22:09:38.680Z,8.80
2023-12-20T22:12:08.388Z,8.90
2023-12-20T22:14:35.685Z,8.90
2023-12-20T22:17:02.988Z,8.90
2023-12-20T22:19:30.273Z,8.90
2023-12-20T22:21:57.485Z,8.90
2023-12-20T22:24:24.693Z,8.90
2023-12-20T22:26:54.586Z,8.90
2023-12-20T22:29:21.960Z,8.90
2023-12-20T22:31:49.176Z,8.90
2023-12-20T22:34:19.043Z,8.90
2023-12-20T22:36:47.377Z,9.00
2023-12-20T22:39:14.496Z,9.00
2023-12-20T22:41:43.101Z,9.00
2023-12-20T22:44:13.108Z,9.00
2023-12-20T22:46:41.877Z,9.00
2023-12-20T22:49:12.382Z,9.00
2023-12-20T22:51:39.672Z,9.00
2023-12-20T22:54:06.787Z,9.00
2023-12-20T22:56:34.036Z,9.00
2023-12-20T22:59:01.265Z,9.00
2023-12-20T23:01:28.974Z,9.00
2023-12-20T23:03:59.417Z,9.00
2023-12-20T23:06:49.030Z,9.00
2023-12-20T23:09:16.112Z,9.00
2023-12-20T23:11:43.745Z,9.10
2023-12-20T23:14:16.654Z,9.10
2023-12-20T23:16:44.198Z,9.10
2023-12-20T23:19:11.926Z,9.10
2023-12-20T23:21:39.326Z,9.10
2023-12-20T23:24:06.627Z,9.10
2023-12-20T23:26:33.733Z,9.10
2023-12-20T23:29:00.826Z,9.10
2023-12-20T23:31:28.076Z,9.10
2023-12-20T23:33:55.515Z,9.10
2023-12-20T23:36:22.732Z,9.10
2023-12-20T23:38:49.906Z,9.10
2023-12-20T23:41:17.017Z,9.10
2023-12-20T23:43:44.029Z,9.10
2023-12-20T23:46:13.635Z,9.10
2023-12-20T23:48:40.605Z,9.10
2023-12-20T23:51:07.619Z,9.10
2023-12-20T23:53:34.670Z,9.10
2023-12-20T23:56:01.722Z,9.20
2023-12-20T23:58:28.726Z,9.20
